Orient, Maine
Current Conditions -  °F | °C
As of 5:53 PM on Saturday 20 Dec 2014 (Local Time) from KHUL Reporting Station
Overcast Overcast  
Wind Chill: 10°   Ceiling: 1600
Heat Index: 19°   Visibility: 10mi
Dew Point: 15°   Wind: 7mph
Humidity: 85%   Direction: 30°NNE
Pressure: 30.34"   Gusts: NA
Location:  45.82°N, 67.84°W
Report Text: KHUL 202253Z AUTO 03006KT 10SM OVC016 M07/M09 A3034 RMK AO2 SLP287 T10721094
Loading
Personal Weather Stations






























Interactive Weather Map New forecast layout! Learn more

10-Day Weather Forecast

Advertisements
Track Severe Weather on mobile